createdAt,value
2019-02-10T00:04:19.466Z,13.33
2019-02-10T00:09:11.616Z,15.67
2019-02-10T00:14:04.221Z,14.77
2019-02-10T00:18:57.018Z,12.97
2019-02-10T00:23:49.376Z,12.27
2019-02-10T00:28:41.829Z,12.37
2019-02-10T00:33:34.792Z,11.13
2019-02-10T00:38:27.169Z,12.23
2019-02-10T00:43:19.452Z,12.97
2019-02-10T00:48:12.053Z,16.20
2019-02-10T00:53:04.785Z,8.80
2019-02-10T00:57:57.457Z,13.47
2019-02-10T01:02:49.717Z,13.00
2019-02-10T01:07:42.480Z,11.73
2019-02-10T01:12:35.130Z,13.07
2019-02-10T01:17:27.383Z,10.77
2019-02-10T01:22:19.793Z,12.57
2019-02-10T01:27:12.585Z,16.60
2019-02-10T01:32:05.084Z,8.20
2019-02-10T01:36:57.870Z,9.47
2019-02-10T01:41:50.307Z,11.07
2019-02-10T01:46:43.102Z,10.13
2019-02-10T01:51:35.688Z,14.10
2019-02-10T01:56:28.353Z,14.83
2019-02-10T02:01:20.505Z,12.20
2019-02-10T02:06:13.149Z,11.87
2019-02-10T02:11:05.681Z,12.53
2019-02-10T02:15:58.709Z,11.43
2019-02-10T02:20:51.720Z,11.03
2019-02-10T02:25:44.026Z,8.83
2019-02-10T02:30:36.635Z,12.40
2019-02-10T02:35:29.034Z,8.53
2019-02-10T02:40:23.326Z,6.37
2019-02-10T02:45:15.437Z,7.33
2019-02-10T02:50:11.916Z,13.80
2019-02-10T02:55:05.964Z,10.93
2019-02-10T02:59:58.638Z,6.87
2019-02-10T03:04:51.513Z,9.73
2019-02-10T03:09:44.041Z,7.37
2019-02-10T03:14:36.386Z,5.53
2019-02-10T03:19:28.859Z,6.87
2019-02-10T03:24:21.560Z,9.40
2019-02-10T03:29:13.773Z,7.80
2019-02-10T03:34:06.434Z,9.13
2019-02-10T03:38:59.319Z,7.17
2019-02-10T03:43:52.030Z,8.28
2019-02-10T03:48:44.378Z,8.57
2019-02-10T03:53:37.133Z,7.07
2019-02-10T03:58:29.774Z,7.17
2019-02-10T04:03:22.089Z,7.40
2019-02-10T04:08:14.505Z,7.30
2019-02-10T04:13:07.325Z,9.07
2019-02-10T04:18:00.048Z,6.80
2019-02-10T04:22:52.369Z,7.10
2019-02-10T04:27:44.668Z,7.83
2019-02-10T04:32:37.523Z,9.20
2019-02-10T04:37:29.880Z,8.23
2019-02-10T04:42:22.198Z,8.57
2019-02-10T04:47:14.956Z,8.03
2019-02-10T04:52:07.529Z,7.30
2019-02-10T04:57:00.085Z,7.40
2019-02-10T05:01:52.746Z,7.47
2019-02-10T05:07:04.592Z,6.87
2019-02-10T05:11:57.040Z,7.27
2019-02-10T05:16:49.579Z,5.27
2019-02-10T05:21:41.853Z,8.33
2019-02-10T05:26:34.294Z,4.63
2019-02-10T05:31:26.870Z,7.70
2019-02-10T05:36:19.491Z,10.13
2019-02-10T05:41:12.078Z,8.03
2019-02-10T05:46:04.443Z,5.05
2019-02-10T05:50:57.132Z,4.40
2019-02-10T05:55:49.487Z,4.70
2019-02-10T06:00:41.845Z,5.23
2019-02-10T06:05:34.661Z,4.90
2019-02-10T06:10:26.990Z,5.40
2019-02-10T06:15:19.413Z,4.93
2019-02-10T06:20:12.472Z,3.73
2019-02-10T06:25:07.282Z,4.47
2019-02-10T06:29:59.545Z,3.50
2019-02-10T06:34:52.045Z,3.57
2019-02-10T06:39:44.388Z,3.62
2019-02-10T06:44:36.830Z,3.50
2019-02-10T06:49:29.324Z,5.10
2019-02-10T06:54:21.718Z,4.75
2019-02-10T06:59:16.069Z,4.80
2019-02-10T07:04:12.365Z,4.47
2019-02-10T07:09:06.194Z,6.10
2019-02-10T07:13:59.308Z,6.72
2019-02-10T07:19:28.028Z,4.57
2019-02-10T07:24:35.704Z,4.60
2019-02-10T07:29:53.501Z,11.27
2019-02-10T07:34:52.177Z,7.67
2019-02-10T07:39:56.529Z,5.53
2019-02-10T07:45:16.571Z,5.10
2019-02-10T07:50:17.694Z,6.65
2019-02-10T07:55:34.818Z,5.60
2019-02-10T08:00:45.265Z,9.25
2019-02-10T08:05:54.789Z,7.90
2019-02-10T08:10:52.224Z,8.23
2019-02-10T08:15:50.314Z,7.67
2019-02-10T08:21:01.037Z,10.60
2019-02-10T08:25:59.031Z,8.93
2019-02-10T08:30:54.597Z,8.53
2019-02-10T08:36:02.118Z,8.15
2019-02-10T08:41:26.784Z,9.70
2019-02-10T08:46:22.158Z,8.73
2019-02-10T08:51:49.755Z,13.20
2019-02-10T08:56:42.361Z,7.20
2019-02-10T09:01:35.200Z,17.25
2019-02-10T09:06:27.770Z,19.35
2019-02-10T09:11:20.496Z,12.00
2019-02-10T09:16:13.229Z,7.70
2019-02-10T09:21:05.939Z,13.35
2019-02-10T09:25:58.228Z,8.93
2019-02-10T09:30:50.769Z,8.95
2019-02-10T09:35:43.286Z,6.58
2019-02-10T09:40:35.800Z,6.17
2019-02-10T09:45:28.660Z,7.00
2019-02-10T09:50:21.082Z,5.25
2019-02-10T09:55:13.926Z,6.87
2019-02-10T10:00:11.857Z,5.70
2019-02-10T10:05:05.404Z,6.15
2019-02-10T10:09:58.120Z,3.80
2019-02-10T10:14:50.897Z,4.20
2019-02-10T10:19:43.687Z,4.62
2019-02-10T10:24:36.262Z,5.20
2019-02-10T10:29:28.875Z,3.60
2019-02-10T10:34:21.580Z,4.53
2019-02-10T10:39:14.173Z,5.12
2019-02-10T10:44:06.593Z,9.35
2019-02-10T10:48:59.654Z,4.50
2019-02-10T10:53:52.253Z,6.25
2019-02-10T10:58:46.724Z,5.67
2019-02-10T11:03:39.087Z,4.25
2019-02-10T11:08:31.514Z,4.47
2019-02-10T11:13:23.940Z,7.30
2019-02-10T11:18:16.321Z,4.55
2019-02-10T11:23:09.397Z,5.25
2019-02-10T11:28:02.079Z,5.70
2019-02-10T11:32:55.094Z,9.85
2019-02-10T11:37:47.655Z,4.67
2019-02-10T11:42:39.990Z,5.58
2019-02-10T11:47:32.818Z,6.72
2019-02-10T11:52:25.817Z,6.00
2019-02-10T11:57:18.448Z,7.50
2019-02-10T12:02:11.177Z,6.90
2019-02-10T12:07:05.035Z,10.45
2019-02-10T12:11:57.969Z,11.25
2019-02-10T12:16:50.731Z,11.25
2019-02-10T12:21:43.805Z,5.87
2019-02-10T12:26:36.545Z,8.45
2019-02-10T12:31:29.528Z,9.80
2019-02-10T12:36:22.675Z,6.20
2019-02-10T12:41:17.263Z,7.70
2019-02-10T12:46:10.403Z,12.82
2019-02-10T12:51:03.279Z,13.90
2019-02-10T12:56:00.158Z,6.40
2019-02-10T13:01:10.948Z,7.42
2019-02-10T13:06:03.661Z,2.17
2019-02-10T13:10:56.731Z,6.00
2019-02-10T13:15:49.399Z,3.37
2019-02-10T13:20:41.747Z,3.25
2019-02-10T13:25:35.526Z,4.00
2019-02-10T13:30:28.242Z,1.65
2019-02-10T13:35:22.190Z,3.40
2019-02-10T13:40:19.668Z,2.58
2019-02-10T13:45:14.276Z,1.98
2019-02-10T13:50:11.412Z,1.60
2019-02-10T13:55:04.441Z,1.73
2019-02-10T13:59:56.812Z,5.63
2019-02-10T14:04:49.696Z,3.80
2019-02-10T14:09:43.222Z,7.20
2019-02-10T14:14:35.993Z,10.40
2019-02-10T14:19:28.719Z,10.83
2019-02-10T14:24:21.362Z,5.87
2019-02-10T14:29:14.024Z,3.50
2019-02-10T14:34:06.590Z,3.08
2019-02-10T14:38:59.204Z,2.50
2019-02-10T14:43:51.657Z,1.40
2019-02-10T14:48:44.327Z,2.30
2019-02-10T14:53:37.303Z,1.97
2019-02-10T14:58:30.131Z,1.37
2019-02-10T15:03:22.981Z,2.20
2019-02-10T15:08:15.840Z,2.77
2019-02-10T15:13:08.695Z,5.17
2019-02-10T15:18:01.323Z,3.23
2019-02-10T15:22:53.615Z,3.77
2019-02-10T15:27:47.659Z,9.37
2019-02-10T15:32:42.213Z,4.67
2019-02-10T15:37:34.787Z,3.27
2019-02-10T15:42:27.414Z,4.85
2019-02-10T15:47:20.449Z,2.67
2019-02-10T15:52:13.037Z,1.87
2019-02-10T15:57:09.104Z,9.23
2019-02-10T16:02:03.277Z,11.47
2019-02-10T16:06:55.549Z,5.43
2019-02-10T16:11:48.141Z,1.87
2019-02-10T16:16:40.868Z,2.17
2019-02-10T16:21:33.402Z,5.30
2019-02-10T16:26:25.761Z,2.90
2019-02-10T16:31:18.482Z,2.87
2019-02-10T16:36:11.258Z,3.67
2019-02-10T16:41:06.491Z,5.70
2019-02-10T16:45:59.136Z,3.73
2019-02-10T16:50:51.926Z,5.90
2019-02-10T16:55:44.346Z,2.07
2019-02-10T17:00:37.504Z,5.23
2019-02-10T17:05:29.765Z,3.50
2019-02-10T17:10:24.586Z,5.30
2019-02-10T17:15:17.069Z,4.20
2019-02-10T17:20:13.777Z,3.27
2019-02-10T17:25:08.788Z,5.07
2019-02-10T17:30:01.510Z,6.73
2019-02-10T17:34:53.836Z,6.43
2019-02-10T17:39:46.269Z,4.43
2019-02-10T17:44:39.157Z,4.10
2019-02-10T17:49:31.713Z,10.70
2019-02-10T17:54:24.277Z,4.97
2019-02-10T17:59:16.509Z,4.67
2019-02-10T18:04:08.889Z,7.87
2019-02-10T18:09:01.591Z,7.63
2019-02-10T18:13:53.968Z,3.40
2019-02-10T18:18:51.171Z,3.03
2019-02-10T18:23:51.017Z,2.07
2019-02-10T18:28:45.018Z,2.67
2019-02-10T18:33:39.379Z,2.80
2019-02-10T18:38:33.712Z,2.27
2019-02-10T18:43:49.051Z,3.90
2019-02-10T18:48:43.225Z,1.70
2019-02-10T18:53:43.190Z,4.87
2019-02-10T18:58:40.733Z,6.10
2019-02-10T19:03:54.238Z,5.33
2019-02-10T19:09:03.909Z,3.73
2019-02-10T19:13:55.413Z,3.77
2019-02-10T19:19:06.169Z,1.80
2019-02-10T19:24:16.858Z,3.03
2019-02-10T19:29:16.933Z,2.00
2019-02-10T19:34:11.257Z,2.60
2019-02-10T19:39:11.001Z,2.27
2019-02-10T19:44:20.090Z,2.90
2019-02-10T19:49:16.861Z,3.17
2019-02-10T19:54:28.991Z,1.90
2019-02-10T19:59:23.320Z,2.37
2019-02-10T20:04:17.361Z,2.10
2019-02-10T20:09:16.192Z,1.60
2019-02-10T20:14:12.700Z,2.40
2019-02-10T20:19:13.069Z,1.70
2019-02-10T20:24:23.705Z,1.70
2019-02-10T20:29:34.490Z,1.87
2019-02-10T20:34:45.060Z,3.20
2019-02-10T20:39:44.952Z,6.17
2019-02-10T20:44:45.294Z,3.27
2019-02-10T20:49:41.954Z,7.17
2019-02-10T20:54:38.927Z,10.63
2019-02-10T20:59:49.473Z,10.10
2019-02-10T21:04:43.448Z,6.63
2019-02-10T21:09:43.833Z,5.43
2019-02-10T21:14:56.110Z,19.70
2019-02-10T21:20:05.267Z,10.80
2019-02-10T21:24:59.285Z,10.60
2019-02-10T21:30:10.001Z,12.90
2019-02-10T21:35:07.128Z,3.50
2019-02-10T21:40:01.089Z,4.53
2019-02-10T21:45:11.794Z,3.00
2019-02-10T21:50:06.976Z,5.40
2019-02-10T21:54:59.313Z,3.43
2019-02-10T21:59:51.880Z,3.10
2019-02-10T22:04:44.311Z,4.03
2019-02-10T22:09:37.408Z,5.03
2019-02-10T22:14:29.702Z,5.43
2019-02-10T22:19:22.200Z,5.60
2019-02-10T22:24:14.725Z,6.00
2019-02-10T22:29:08.091Z,3.30
2019-02-10T22:34:01.815Z,5.13
2019-02-10T22:43:54.603Z,6.50
2019-02-10T22:54:05.749Z,5.10
2019-02-10T22:58:59.051Z,4.40
2019-02-10T23:03:51.945Z,5.33
2019-02-10T23:08:44.866Z,3.40
2019-02-10T23:13:37.681Z,6.07
2019-02-10T23:18:31.081Z,4.53
2019-02-10T23:23:26.754Z,5.47
2019-02-10T23:28:19.681Z,10.43
2019-02-10T23:33:12.661Z,8.33
2019-02-10T23:38:05.780Z,8.23
2019-02-10T23:43:02.036Z,13.63
2019-02-10T23:47:56.113Z,12.37
2019-02-10T23:52:49.292Z,14.73
2019-02-10T23:57:41.845Z,19.50
